Airfield :
LOGIN :

Register | Disclaimer

   EN    FR    IT 

 










Legend :    VFR   Marginal VFR   IFR   Intensive IFR   Very Intensive IFR
Visi :
Ceiling :
>= 8 km
>= 3000ft
5 to 8 km
1000 to 3000 ft
1500m to 5 km
500 to 1000 ft
800 to 1500m
200 to 500 ft
< 800m
< 200 ft
Symbols :   Thunderstorms  Fog  Heavy snow  Heavy precipitations  Wind > 20 kt
SIGMETs :     Misc.  Thunderstorms  Icing  Turbulence  Mountain Waves  Volcanic Ashes







- Airport Elevation : 1046 ft
- IATA code : FDE


ENBL - Bringeland

CURRENT METAR :
  • 192220Z 20030G40KT 8000 SHRA FEW010 SCT017 BKN023 09/07 Q0987

EXPIRED METARs :
  • 192150Z 20026G42KT 6000 SHRA FEW010 SCT016 BKN023 10/08 Q0986
  • 192120Z 20029G44KT 6000 SHRA SCT016 BKN035 10/08 Q0986

TAF N/A
No reported NOTAMs for that airfield.
5 SIGMETs reported for the Norway FIR (ENOR) :
 
Severe turbulence
ENSV SIGMET B04 VALID 192300/200300 ENVV
ENOR NORWAY FIR SEV TURB FCST WI N6200 E00510 - N6200 E00730 - N6000 E00730 - N6000 E00600 - N6200 E00510 SFC/FL180 STNR NC=
Severe mountain waves
ENOS SIGMET A02 VALID 192000/200000 ENMI
ENOR NORWAY FIR SEV MTW FCST WI N5930 E00730 - N6200 E00730 - N6200 E01000 - N5940 E00935 - N5930 E00730 SFC/FL200 STNR NC=
Severe mountain waves
ENOS SIGMET A01 VALID 200001/200400 ENMI
ENOR NORWAY FIR SEV MTW FCST WI N6045 E00730 - N6200 E00730 - N6200 E01000 - N6130 E01000 - N6045 E00730 SFC/FL200 STNR WKN=
Severe turbulence
ENBD SIGMET D01 VALID 192300/200300 ENVN
ENOR NORWAY FIR SEV TURB FCST N OF N6500 AND S OF N6800 AND E OF E01200 SFC/FL080 MOV N 20KT NC=
Severe mountain waves
ENBD SIGMET C02 VALID 192200/200200 ENVV
ENOR NORWAY FIR SEV MTW FCST WI N6200 E00500 - N6345 E00850 - N6345 E01220 - N6200 E01212 - N6200 E00500 SFC/FL240 MOV NE 15KT NC=



MET'MAP, your aeronautical weather chart ! - Copyright ORBIFLY December 2007 - Disclaimer

ORBIFLY MET'MAP TEAM :

Programming & Development : Alexandra Zaïnal
Concept & Development : Baudouin d'Aumeries
Co-Development & Prog : Marc-Olivier Méhu
Technical & hardware support : Manuel Goepfert

Contact : metmap@orbifly.com




SOURCES & CREDITS :

   NOAA